Time;durP1;ratioP1;P1;durP2;ratioP2;P2;SDS_P1;SDS_P2;PMS_P1;PMS_P2;Temp;Humidity;BMP_temperature;BMP_pressure;BME280_temperature;BME280_humidity;BME280_pressure;Samples;Min_cycle;Max_cycle;Signal;HPM_P1;HPM_P2
2023/11/05 00:01:44;;;;;;;6.18;1.40;;;17.00;96.70;;;;;;4917830;29;20042;-83
2023/11/05 00:04:12;;;;;;;5.93;1.73;;;17.00;96.70;;;;;;4915788;29;20135;-81
2023/11/05 00:06:40;;;;;;;8.32;1.50;;;17.00;96.70;;;;;;4914111;29;20478;-83
2023/11/05 00:09:08;;;;;;;11.70;1.60;;;17.10;96.70;;;;;;4897350;29;20151;-83
2023/11/05 00:11:36;;;;;;;8.73;1.42;;;17.10;96.70;;;;;;4932823;29;20094;-83
2023/11/05 00:14:05;;;;;;;9.02;1.75;;;17.00;96.70;;;;;;4932936;29;20043;-83
2023/11/05 00:16:34;;;;;;;8.57;1.63;;;17.00;96.70;;;;;;4900196;29;20115;-82
2023/11/05 00:19:02;;;;;;;9.35;1.88;;;17.00;96.70;;;;;;4915414;29;20534;-83
2023/11/05 00:21:31;;;;;;;9.48;1.55;;;16.90;96.70;;;;;;4930401;29;20135;-84
2023/11/05 00:23:59;;;;;;;5.63;1.23;;;16.90;96.70;;;;;;4922819;29;20541;-83
2023/11/05 00:26:28;;;;;;;11.20;1.90;;;16.90;96.70;;;;;;4913792;29;20513;-83
2023/11/05 00:28:56;;;;;;;8.30;1.83;;;17.00;96.70;;;;;;4899907;29;20054;-83
2023/11/05 00:31:24;;;;;;;8.77;1.63;;;17.00;96.70;;;;;;4932684;29;20050;-83
2023/11/05 00:33:54;;;;;;;8.23;1.65;;;17.10;96.70;;;;;;4915770;29;20494;-82
2023/11/05 00:36:23;;;;;;;13.80;2.08;;;17.10;96.70;;;;;;4932673;29;20559;-83
2023/11/05 00:38:55;;;;;;;11.02;1.42;;;17.10;96.70;;;;;;4915412;29;20095;-83
2023/11/05 00:41:23;;;;;;;8.02;1.88;;;17.10;96.70;;;;;;4932647;29;20071;-83
2023/11/05 00:43:51;;;;;;;9.55;1.65;;;17.20;96.70;;;;;;4932530;29;20803;-83
2023/11/05 00:46:19;;;;;;;6.18;1.40;;;17.10;96.70;;;;;;4915314;29;20047;-82
2023/11/05 00:48:47;;;;;;;8.15;1.73;;;17.10;96.70;;;;;;4915775;29;20115;-84
2023/11/05 00:51:16;;;;;;;6.90;2.00;;;17.20;96.70;;;;;;4900048;29;20051;-84
2023/11/05 00:53:44;;;;;;;8.80;1.85;;;17.10;96.70;;;;;;4915080;29;20072;-84
2023/11/05 00:56:12;;;;;;;10.45;1.85;;;17.10;96.70;;;;;;4915565;29;20086;-84
2023/11/05 00:58:41;;;;;;;6.00;1.70;;;17.10;96.70;;;;;;4932425;29;20043;-85
2023/11/05 01:01:09;;;;;;;10.57;2.15;;;17.00;96.70;;;;;;4899853;29;20206;-85
2023/11/05 01:03:37;;;;;;;8.82;1.67;;;17.00;96.70;;;;;;4899661;29;20055;-85
2023/11/05 01:06:05;;;;;;;4.82;0.90;;;17.00;96.70;;;;;;4891615;29;20321;-85
2023/11/05 01:08:35;;;;;;;9.65;1.90;;;17.00;96.70;;;;;;4931893;29;20074;-84
2023/11/05 01:11:04;;;;;;;6.25;1.15;;;17.00;96.70;;;;;;4913568;29;20498;-85
2023/11/05 01:13:32;;;;;;;9.05;1.65;;;17.10;96.70;;;;;;4899425;29;20517;-84
2023/11/05 01:16:00;;;;;;;9.95;1.90;;;17.10;96.70;;;;;;4910337;29;20146;-86
2023/11/05 01:18:28;;;;;;;6.38;1.45;;;17.00;96.70;;;;;;4914549;29;20052;-84
2023/11/05 01:20:56;;;;;;;8.55;1.42;;;17.00;96.70;;;;;;4915295;29;20091;-83
2023/11/05 01:23:24;;;;;;;6.95;1.13;;;16.90;96.70;;;;;;4895602;29;20056;-84
2023/11/05 01:25:54;;;;;;;4.93;1.05;;;16.90;96.70;;;;;;4910728;29;20071;-83
2023/11/05 01:28:22;;;;;;;6.72;1.08;;;16.90;96.70;;;;;;4896024;29;20048;-82
2023/11/05 01:30:50;;;;;;;4.30;0.90;;;16.90;96.70;;;;;;4938891;29;20043;-83
2023/11/05 01:33:18;;;;;;;7.53;1.45;;;16.90;96.70;;;;;;4914954;29;20058;-82
2023/11/05 01:35:47;;;;;;;5.53;1.08;;;16.90;96.70;;;;;;4898936;29;20066;-83
2023/11/05 01:38:15;;;;;;;3.10;0.90;;;16.80;96.70;;;;;;4911755;29;20040;-84
2023/11/05 01:40:43;;;;;;;6.75;1.27;;;16.80;96.70;;;;;;4927202;29;20051;-84
2023/11/05 01:43:12;;;;;;;4.30;0.85;;;16.80;96.70;;;;;;4914626;29;20056;-86
2023/11/05 01:45:40;;;;;;;4.60;1.00;;;16.80;96.70;;;;;;4894268;29;20044;-85
2023/11/05 01:48:09;;;;;;;7.70;1.40;;;16.80;96.70;;;;;;4914632;29;20051;-85
2023/11/05 01:50:38;;;;;;;5.05;1.02;;;16.80;96.70;;;;;;4898466;29;20043;-86
2023/11/05 01:53:07;;;;;;;7.45;1.70;;;16.80;96.70;;;;;;4914409;29;20063;-85
2023/11/05 01:55:37;;;;;;;6.32;1.23;;;16.90;96.70;;;;;;4898898;29;20143;-87
2023/11/05 01:58:05;;;;;;;6.13;1.25;;;16.90;96.70;;;;;;4911947;29;20052;-88
2023/11/05 02:00:35;;;;;;;4.15;0.93;;;16.80;96.70;;;;;;4906313;29;20102;-84
2023/11/05 02:03:03;;;;;;;6.70;1.52;;;16.70;96.70;;;;;;4914322;29;20059;-83
2023/11/05 02:05:31;;;;;;;9.52;1.75;;;16.70;96.70;;;;;;4898675;29;20048;-84
2023/11/05 02:08:00;;;;;;;10.70;1.45;;;16.70;96.70;;;;;;4914579;29;20174;-85
2023/11/05 02:10:28;;;;;;;7.00;1.10;;;16.70;96.70;;;;;;4914299;29;20490;-86
2023/11/05 02:12:56;;;;;;;4.65;1.35;;;16.60;96.70;;;;;;4913582;29;20126;-84
2023/11/05 02:15:25;;;;;;;9.05;1.73;;;16.50;96.70;;;;;;4909078;29;20120;-84
2023/11/05 02:17:54;;;;;;;6.93;1.73;;;16.50;96.70;;;;;;4913490;29;20166;-83
2023/11/05 02:20:23;;;;;;;7.63;1.73;;;16.50;96.70;;;;;;4898413;29;20043;-83
2023/11/05 02:22:55;;;;;;;6.55;1.90;;;16.60;96.70;;;;;;4913515;29;20537;-84
2023/11/05 02:25:25;;;;;;;9.90;2.03;;;16.60;96.70;;;;;;4897317;29;20055;-83
2023/11/05 02:27:53;;;;;;;6.80;1.70;;;16.60;96.70;;;;;;4894612;29;20629;-85
2023/11/05 02:30:24;;;;;;;6.05;1.65;;;16.60;96.70;;;;;;4901456;29;20043;-84
2023/11/05 02:32:53;;;;;;;9.00;1.65;;;16.70;96.70;;;;;;4934566;29;20071;-84
2023/11/05 02:35:21;;;;;;;9.43;1.63;;;16.80;96.70;;;;;;4913805;29;20058;-83
2023/11/05 02:37:49;;;;;;;8.50;2.00;;;17.00;96.70;;;;;;4898289;29;20051;-84
2023/11/05 02:40:18;;;;;;;5.55;1.58;;;17.00;96.70;;;;;;4913591;29;20099;-84
2023/11/05 02:42:47;;;;;;;10.57;2.40;;;17.00;96.70;;;;;;4913846;29;20811;-84
2023/11/05 02:45:16;;;;;;;7.82;2.60;;;17.10;96.70;;;;;;4897998;29;20786;-86
2023/11/05 02:47:43;;;;;;;14.18;3.67;;;17.10;96.70;;;;;;4913776;29;20055;-85
2023/11/05 02:50:14;;;;;;;14.43;3.72;;;17.20;96.70;;;;;;4895176;29;20155;-85
2023/11/05 02:52:42;;;;;;;18.27;2.92;;;17.20;96.70;;;;;;4898005;29;20075;-85
2023/11/05 02:55:10;;;;;;;14.05;3.05;;;17.20;96.70;;;;;;4897491;29;20058;-84
2023/11/05 02:57:38;;;;;;;19.73;3.97;;;17.20;96.70;;;;;;4898590;29;20043;-85
2023/11/05 03:00:13;;;;;;;22.83;4.43;;;17.30;96.70;;;;;;4930536;29;20075;-84
2023/11/05 03:02:42;;;;;;;23.63;4.50;;;17.30;96.70;;;;;;4897609;29;20533;-85
2023/11/05 03:05:10;;;;;;;22.65;5.20;;;17.40;96.70;;;;;;4913889;29;20134;-83
2023/11/05 03:07:39;;;;;;;22.23;5.25;;;17.40;96.70;;;;;;4930488;29;20106;-84
2023/11/05 03:10:08;;;;;;;25.05;5.13;;;17.50;96.70;;;;;;4913677;29;20036;-83
2023/11/05 03:12:36;;;;;;;32.17;6.60;;;17.60;96.70;;;;;;4898332;29;20067;-85
2023/11/05 03:15:05;;;;;;;25.98;5.55;;;17.60;96.70;;;;;;4913718;29;20047;-85
2023/11/05 03:17:36;;;;;;;25.20;6.05;;;17.70;96.70;;;;;;4913097;29;20458;-85
2023/11/05 03:20:07;;;;;;;28.08;5.57;;;17.70;96.70;;;;;;4896085;29;20532;-84
2023/11/05 03:22:35;;;;;;;25.25;5.43;;;17.80;96.70;;;;;;4897922;29;20055;-85
2023/11/05 03:25:04;;;;;;;25.85;5.93;;;17.80;96.70;;;;;;4913654;29;20044;-84
2023/11/05 03:27:32;;;;;;;29.63;6.35;;;17.90;96.70;;;;;;4913370;29;20490;-85
2023/11/05 03:30:01;;;;;;;29.77;5.85;;;17.90;96.70;;;;;;4929836;29;20106;-85
2023/11/05 03:32:29;;;;;;;32.10;6.65;;;18.00;96.70;;;;;;4897524;29;20071;-84
2023/11/05 03:34:58;;;;;;;30.00;6.10;;;18.00;96.70;;;;;;4930520;29;20439;-85
2023/11/05 03:37:28;;;;;;;29.70;6.63;;;18.00;96.70;;;;;;4930575;29;20036;-84
2023/11/05 03:39:56;;;;;;;37.88;6.35;;;18.00;96.70;;;;;;4930922;29;20039;-84
2023/11/05 03:42:24;;;;;;;34.63;6.88;;;18.00;96.70;;;;;;4900002;29;20063;-83
2023/11/05 03:44:52;;;;;;;30.67;6.50;;;18.00;96.70;;;;;;4917029;29;20056;-84
2023/11/05 03:47:20;;;;;;;34.47;7.15;;;18.00;96.70;;;;;;4916758;29;20074;-83
2023/11/05 03:49:48;;;;;;;33.95;6.10;;;18.00;96.70;;;;;;4913459;29;20502;-85
2023/11/05 03:52:18;;;;;;;27.65;6.88;;;18.00;96.70;;;;;;4933548;29;20046;-84
2023/11/05 03:54:46;;;;;;;27.88;5.10;;;18.00;96.70;;;;;;4915246;29;20036;-80
2023/11/05 03:57:14;;;;;;;26.58;5.50;;;18.10;96.70;;;;;;4914243;29;20055;-81
2023/11/05 03:59:42;;;;;;;28.60;5.75;;;18.10;96.70;;;;;;4932389;29;20052;-81
2023/11/05 04:02:11;;;;;;;24.38;4.60;;;18.00;96.70;;;;;;4914601;29;20111;-82
2023/11/05 04:04:39;;;;;;;23.83;4.63;;;18.00;96.70;;;;;;4895854;29;20194;-82
2023/11/05 04:07:07;;;;;;;18.13;5.03;;;18.00;96.70;;;;;;4913205;29;20054;-81
2023/11/05 04:09:37;;;;;;;26.63;5.68;;;17.90;96.70;;;;;;4914638;29;20051;-82
2023/11/05 04:12:06;;;;;;;32.85;6.00;;;17.90;96.70;;;;;;4923803;29;20067;-80
2023/11/05 04:14:34;;;;;;;33.92;6.43;;;17.90;96.70;;;;;;4914370;29;20095;-81
2023/11/05 04:17:03;;;;;;;24.52;4.45;;;17.90;96.70;;;;;;4927406;29;20043;-81
2023/11/05 04:19:31;;;;;;;24.88;4.82;;;17.80;96.70;;;;;;4935877;29;20160;-81
2023/11/05 04:21:59;;;;;;;25.80;4.88;;;17.80;96.70;;;;;;4905867;29;20047;-80
2023/11/05 04:24:27;;;;;;;29.15;5.85;;;17.70;96.70;;;;;;4913771;29;20039;-81
2023/11/05 04:26:57;;;;;;;25.75;4.93;;;17.70;96.70;;;;;;4913037;29;20052;-82
2023/11/05 04:29:25;;;;;;;23.35;4.70;;;17.70;96.70;;;;;;4931572;29;20147;-81
2023/11/05 04:31:56;;;;;;;22.45;4.95;;;17.60;96.70;;;;;;4931331;29;20092;-81
2023/11/05 04:34:27;;;;;;;21.92;4.55;;;17.60;96.70;;;;;;4897348;29;20139;-81
2023/11/05 04:36:55;;;;;;;17.35;3.90;;;17.60;96.70;;;;;;4898303;29;20135;-81
2023/11/05 04:39:25;;;;;;;27.52;5.30;;;17.50;96.70;;;;;;4897910;29;20447;-81
2023/11/05 04:41:54;;;;;;;21.33;4.00;;;17.50;96.70;;;;;;4898131;29;20811;-81
2023/11/05 04:44:23;;;;;;;26.13;4.45;;;17.50;96.70;;;;;;4918627;29;20051;-80
2023/11/05 04:46:51;;;;;;;23.52;4.65;;;17.50;96.70;;;;;;4910722;29;20036;-82
2023/11/05 04:49:20;;;;;;;15.55;3.35;;;17.50;96.70;;;;;;4895095;29;20056;-81
2023/11/05 04:51:48;;;;;;;19.38;4.10;;;17.40;96.70;;;;;;4903567;29;20063;-80
2023/11/05 04:54:16;;;;;;;18.92;3.88;;;17.40;96.70;;;;;;4912529;29;20052;-81
2023/11/05 04:56:44;;;;;;;21.58;4.45;;;17.40;96.70;;;;;;4897562;29;20410;-79
2023/11/05 04:59:12;;;;;;;22.95;4.50;;;17.30;96.70;;;;;;4915834;29;20043;-81
2023/11/05 05:01:43;;;;;;;20.13;4.13;;;17.30;96.70;;;;;;4897175;29;20382;-81
2023/11/05 05:04:11;;;;;;;17.45;3.40;;;17.30;96.70;;;;;;4925519;29;20048;-81
2023/11/05 05:06:40;;;;;;;29.00;4.25;;;17.30;96.70;;;;;;4930445;29;20154;-81
2023/11/05 05:09:09;;;;;;;17.67;4.20;;;17.20;96.70;;;;;;4897220;29;20091;-81
2023/11/05 05:11:37;;;;;;;19.05;3.38;;;17.20;96.70;;;;;;4897710;29;20047;-81
2023/11/05 05:14:05;;;;;;;22.05;4.30;;;17.20;96.70;;;;;;4912926;29;20961;-81
2023/11/05 05:16:34;;;;;;;14.73;3.15;;;17.20;96.70;;;;;;4912157;29;20079;-80
2023/11/05 05:19:03;;;;;;;20.42;3.90;;;17.10;96.70;;;;;;4883559;29;20055;-80
2023/11/05 05:21:32;;;;;;;20.13;4.25;;;17.10;96.70;;;;;;4912422;29;20075;-81
2023/11/05 05:24:00;;;;;;;16.80;3.45;;;17.10;96.70;;;;;;4911962;29;20271;-80
2023/11/05 05:26:28;;;;;;;18.00;3.63;;;17.10;96.70;;;;;;4928863;29;20043;-80
2023/11/05 05:28:56;;;;;;;20.30;3.92;;;17.10;96.70;;;;;;4912145;29;20510;-80
2023/11/05 05:31:24;;;;;;;18.45;3.78;;;17.00;96.70;;;;;;4921669;29;20047;-81
2023/11/05 05:33:52;;;;;;;16.25;2.72;;;17.00;96.70;;;;;;4912561;29;20124;-81
2023/11/05 05:36:22;;;;;;;14.88;3.75;;;16.90;96.70;;;;;;4897018;29;20115;-81
2023/11/05 05:38:50;;;;;;;22.60;3.25;;;16.90;96.70;;;;;;4912052;29;20131;-80
2023/11/05 05:41:18;;;;;;;15.52;3.42;;;16.80;96.70;;;;;;4923725;29;20052;-81
2023/11/05 05:43:47;;;;;;;18.33;3.22;;;16.80;96.70;;;;;;4912605;29;20138;-81
2023/11/05 05:46:15;;;;;;;16.30;3.45;;;16.70;96.70;;;;;;4912237;29;20047;-81
2023/11/05 05:48:43;;;;;;;17.30;3.25;;;16.70;96.70;;;;;;4911751;29;20051;-81
2023/11/05 05:51:14;;;;;;;18.27;3.15;;;16.70;96.70;;;;;;4911977;29;20200;-81
2023/11/05 05:53:44;;;;;;;15.68;3.20;;;16.60;96.70;;;;;;4911719;29;20071;-81
2023/11/05 05:56:13;;;;;;;14.15;3.08;;;16.60;96.70;;;;;;4892993;29;20468;-81
2023/11/05 05:58:42;;;;;;;24.92;3.50;;;16.60;96.70;;;;;;4892880;29;20056;-81
2023/11/05 06:01:10;;;;;;;16.48;3.13;;;16.60;96.70;;;;;;4909874;29;20048;-81
2023/11/05 06:03:38;;;;;;;17.27;3.22;;;16.60;96.70;;;;;;4893736;29;20044;-81
2023/11/05 06:06:07;;;;;;;13.10;3.30;;;16.60;96.70;;;;;;4908193;29;20098;-81
2023/11/05 06:08:35;;;;;;;14.18;2.33;;;16.70;96.70;;;;;;4891935;29;20506;-80
2023/11/05 06:11:05;;;;;;;12.27;2.33;;;16.70;96.70;;;;;;4908954;29;20056;-82
2023/11/05 06:13:33;;;;;;;14.27;3.55;;;16.80;96.70;;;;;;4909187;29;20096;-80
2023/11/05 06:16:02;;;;;;;14.73;2.58;;;16.80;96.70;;;;;;4910182;29;20416;-81
2023/11/05 06:18:30;;;;;;;11.75;2.00;;;16.80;96.70;;;;;;4893600;29;20087;-80
2023/11/05 06:20:59;;;;;;;18.05;3.33;;;16.80;96.70;;;;;;4908660;29;20159;-80
2023/11/05 06:23:27;;;;;;;13.13;2.45;;;16.90;96.70;;;;;;4892620;29;20107;-81
2023/11/05 06:25:56;;;;;;;10.40;2.15;;;16.90;96.70;;;;;;4909412;29;20095;-81
2023/11/05 06:28:25;;;;;;;14.60;3.17;;;17.00;96.70;;;;;;4909070;29;20055;-80
2023/11/05 06:30:55;;;;;;;11.45;2.20;;;17.00;96.70;;;;;;4909595;29;20123;-81
2023/11/05 06:33:23;;;;;;;15.05;3.00;;;17.10;96.70;;;;;;4916174;29;20056;-80
2023/11/05 06:35:51;;;;;;;15.95;2.83;;;17.10;96.70;;;;;;4908477;29;20052;-80
2023/11/05 06:38:19;;;;;;;12.90;2.13;;;17.10;96.70;;;;;;4909454;29;20052;-81
2023/11/05 06:40:47;;;;;;;11.07;2.50;;;17.20;96.70;;;;;;4893066;29;20056;-80
2023/11/05 06:43:16;;;;;;;13.35;2.00;;;17.20;96.70;;;;;;4897797;29;20395;-80
2023/11/05 06:45:46;;;;;;;14.10;2.92;;;17.20;96.70;;;;;;4903738;29;20423;-80
2023/11/05 06:48:14;;;;;;;13.38;3.03;;;17.20;96.70;;;;;;4904390;29;20479;-81
2023/11/05 06:50:42;;;;;;;14.25;3.05;;;17.30;96.70;;;;;;4905997;29;20426;-81
2023/11/05 06:53:11;;;;;;;14.20;2.70;;;17.40;96.70;;;;;;4918871;29;20083;-81
2023/11/05 06:55:39;;;;;;;10.23;2.38;;;17.50;96.70;;;;;;4907811;29;20063;-81
2023/11/05 06:58:08;;;;;;;14.13;2.80;;;17.50;96.70;;;;;;4908154;29;20051;-80
2023/11/05 07:00:40;;;;;;;11.35;2.22;;;17.60;96.70;;;;;;4907300;29;20060;-80
2023/11/05 07:03:10;;;;;;;18.15;3.03;;;17.70;96.70;;;;;;4909419;29;20082;-81
2023/11/05 07:05:39;;;;;;;11.68;2.33;;;17.80;96.70;;;;;;4907708;29;20107;-81
2023/11/05 07:08:07;;;;;;;15.30;2.50;;;17.90;96.70;;;;;;4907604;29;20084;-80
2023/11/05 07:10:36;;;;;;;14.93;2.20;;;17.90;96.70;;;;;;4908104;29;20048;-81
2023/11/05 07:13:04;;;;;;;11.73;2.20;;;18.00;96.70;;;;;;4909226;29;20570;-80
2023/11/05 07:15:33;;;;;;;11.52;2.42;;;18.00;96.70;;;;;;4907359;29;20551;-81
2023/11/05 07:18:01;;;;;;;11.25;2.97;;;17.90;96.70;;;;;;4895736;29;20044;-82
2023/11/05 07:20:32;;;;;;;14.35;3.03;;;18.00;96.70;;;;;;4912945;29;20609;-81
2023/11/05 07:23:02;;;;;;;10.70;1.95;;;18.00;96.70;;;;;;4911861;29;20152;-81
2023/11/05 07:25:31;;;;;;;9.82;2.10;;;18.00;96.70;;;;;;4896158;29;20055;-81
2023/11/05 07:27:59;;;;;;;11.07;2.28;;;18.00;96.70;;;;;;4911472;29;20070;-81
2023/11/05 07:30:27;;;;;;;19.10;3.00;;;18.10;96.70;;;;;;4895924;29;20054;-80
2023/11/05 07:32:55;;;;;;;10.00;2.20;;;18.10;96.70;;;;;;4911852;29;20127;-81
2023/11/05 07:35:26;;;;;;;11.23;2.47;;;18.20;96.70;;;;;;4909107;29;20056;-81
2023/11/05 07:37:56;;;;;;;15.75;2.83;;;18.20;96.70;;;;;;4913289;29;20076;-81
2023/11/05 07:40:23;;;;;;;11.18;1.52;;;18.20;96.70;;;;;;4921289;29;20585;-81
2023/11/05 07:42:52;;;;;;;14.15;2.60;;;18.30;96.70;;;;;;4897197;29;20051;-81
2023/11/05 07:45:22;;;;;;;11.48;1.95;;;18.30;96.70;;;;;;4911698;29;20043;-81
2023/11/05 07:47:50;;;;;;;6.25;1.75;;;18.30;96.70;;;;;;4920551;29;20521;-82
2023/11/05 07:50:19;;;;;;;16.35;2.30;;;18.30;96.70;;;;;;4916478;29;20052;-81
2023/11/05 07:52:48;;;;;;;9.32;1.85;;;18.40;96.70;;;;;;4911953;29;20127;-81
2023/11/05 07:55:18;;;;;;;9.43;1.85;;;18.40;96.70;;;;;;4893182;29;20079;-81
2023/11/05 07:57:46;;;;;;;11.55;2.63;;;18.40;96.70;;;;;;4912761;29;20066;-81
2023/11/05 08:00:17;;;;;;;10.73;2.72;;;18.50;96.70;;;;;;4914880;29;20054;-80
2023/11/05 08:02:49;;;;;;;7.95;1.88;;;18.50;96.70;;;;;;4895399;29;20754;-81
2023/11/05 08:05:17;;;;;;;11.23;1.73;;;18.50;96.70;;;;;;4911944;29;20534;-80
2023/11/05 08:07:47;;;;;;;6.28;1.52;;;18.50;96.70;;;;;;4912082;29;20422;-80
2023/11/05 08:10:15;;;;;;;9.05;2.17;;;18.50;96.70;;;;;;4911578;29;20052;-80
2023/11/05 08:12:45;;;;;;;6.93;1.88;;;18.50;96.70;;;;;;4910827;29;20048;-80
2023/11/05 08:15:13;;;;;;;7.50;1.55;;;18.50;96.70;;;;;;4912797;29;20044;-87
2023/11/05 08:17:42;;;;;;;9.93;1.70;;;18.60;96.70;;;;;;4885885;29;20049;-86
2023/11/05 08:20:11;;;;;;;9.65;2.35;;;18.60;96.70;;;;;;4910669;29;20581;-85
2023/11/05 08:22:41;;;;;;;11.80;1.80;;;18.50;96.70;;;;;;4912698;29;20540;-86
2023/11/05 08:25:11;;;;;;;10.23;2.03;;;18.50;96.70;;;;;;4913002;29;20611;-84
2023/11/05 08:27:40;;;;;;;8.23;2.00;;;18.40;96.70;;;;;;4895921;29;20134;-84
2023/11/05 08:30:13;;;;;;;7.60;1.88;;;18.40;96.70;;;;;;4893008;29;20048;-87
2023/11/05 08:32:41;;;;;;;10.27;1.58;;;18.50;96.70;;;;;;4897047;29;20052;-95
2023/11/05 08:35:11;;;;;;;8.98;1.60;;;18.50;96.70;;;;;;4897368;29;20147;-83
2023/11/05 08:37:40;;;;;;;9.23;2.33;;;18.50;96.70;;;;;;4912382;29;20103;-87
2023/11/05 08:40:13;;;;;;;8.75;1.38;;;18.60;96.70;;;;;;4913250;29;20220;-87
2023/11/05 08:42:42;;;;;;;11.02;1.38;;;18.70;96.70;;;;;;4897139;29;20403;-85
2023/11/05 08:45:15;;;;;;;17.70;7.85;;;18.60;96.70;;;;;;4898865;29;20135;-84
2023/11/05 08:47:43;;;;;;;12.35;5.95;;;18.60;96.70;;;;;;4911681;29;20052;-84
2023/11/05 08:50:11;;;;;;;9.95;3.08;;;18.60;96.70;;;;;;4911758;29;20052;-84
2023/11/05 08:52:40;;;;;;;8.45;2.67;;;18.70;96.70;;;;;;4912204;29;20100;-87
2023/11/05 08:55:12;;;;;;;13.48;5.30;;;18.90;96.70;;;;;;4899452;29;20731;-88
2023/11/05 08:57:40;;;;;;;10.40;2.97;;;19.10;96.70;;;;;;4915071;29;20074;-84
2023/11/05 09:00:12;;;;;;;17.92;12.25;;;19.30;96.70;;;;;;4932563;29;20108;-87
2023/11/05 09:02:41;;;;;;;19.15;10.48;;;19.30;96.70;;;;;;4912982;29;20078;-89
2023/11/05 09:05:10;;;;;;;23.63;17.48;;;19.50;96.70;;;;;;4902869;29;20098;-89
2023/11/05 09:07:38;;;;;;;18.33;10.48;;;19.40;96.70;;;;;;4914985;29;20051;-87
2023/11/05 09:10:09;;;;;;;7.80;4.20;;;19.30;96.70;;;;;;4914812;29;20047;-88
2023/11/05 09:12:38;;;;;;;9.23;2.63;;;19.20;96.70;;;;;;4915891;29;20080;-85
2023/11/05 09:15:07;;;;;;;10.43;2.83;;;19.10;96.70;;;;;;4932323;29;20478;-86
2023/11/05 09:17:37;;;;;;;6.82;1.50;;;19.00;96.70;;;;;;4932517;29;20043;-85
2023/11/05 09:20:08;;;;;;;7.13;1.63;;;19.00;96.70;;;;;;4912352;29;20058;-87
2023/11/05 09:22:38;;;;;;;5.07;1.65;;;19.10;96.70;;;;;;4914573;29;20134;-88
2023/11/05 09:25:08;;;;;;;6.13;1.63;;;19.30;96.70;;;;;;4915526;29;20051;-88
2023/11/05 09:27:39;;;;;;;8.98;2.03;;;19.30;96.70;;;;;;4929197;29;20070;-86
2023/11/05 09:30:14;;;;;;;8.93;1.80;;;19.60;96.70;;;;;;4899621;29;20051;-90
2023/11/05 09:32:44;;;;;;;7.00;1.63;;;19.60;96.70;;;;;;4915684;29;20494;-84
2023/11/05 09:35:13;;;;;;;9.05;1.75;;;19.50;96.70;;;;;;4931285;29;20291;-83
2023/11/05 09:37:43;;;;;;;9.20;1.35;;;19.50;96.70;;;;;;4926715;29;20051;-86
2023/11/05 09:40:15;;;;;;;6.72;1.13;;;19.40;96.70;;;;;;4918436;29;20043;-86
2023/11/05 09:42:53;;;;;;;7.30;1.38;;;19.60;96.70;;;;;;4915230;29;20050;-86
2023/11/05 09:45:21;;;;;;;;;;;19.80;96.70;;;;;;4932605;29;20055;-86
2023/11/05 09:47:51;;;;;;;6.65;1.45;;;20.00;96.70;;;;;;4899355;29;19930;-86
2023/11/05 09:50:20;;;;;;;5.32;1.25;;;19.90;96.70;;;;;;4931358;29;20058;-87
2023/11/05 09:52:48;;;;;;;8.20;1.50;;;19.90;96.70;;;;;;4914999;29;20058;-84
2023/11/05 09:55:17;;;;;;;7.45;1.65;;;20.00;96.70;;;;;;4913858;29;20062;-85
2023/11/05 09:57:46;;;;;;;9.50;1.88;;;20.00;96.70;;;;;;4913509;29;20131;-86
2023/11/05 10:00:15;;;;;;;5.10;1.23;;;19.90;96.70;;;;;;4898294;29;20047;-82
2023/11/05 10:02:55;;;;;;;7.72;1.20;;;19.90;96.70;;;;;;4930762;29;20062;-87
2023/11/05 10:05:25;;;;;;;6.78;1.40;;;19.80;96.70;;;;;;4927923;29;20062;-86
2023/11/05 10:07:53;;;;;;;5.60;1.20;;;19.70;96.70;;;;;;4931208;29;20567;-86
2023/11/05 10:10:22;;;;;;;9.13;1.83;;;19.60;96.70;;;;;;4927536;29;20088;-85
2023/11/05 10:12:51;;;;;;;13.43;2.30;;;19.60;96.70;;;;;;4913794;29;20055;-83
2023/11/05 10:15:20;;;;;;;8.68;1.45;;;19.50;96.70;;;;;;4912956;29;20044;-85
2023/11/05 10:17:48;;;;;;;7.90;2.40;;;19.40;96.70;;;;;;4898593;29;20742;-85
2023/11/05 10:20:19;;;;;;;5.15;1.40;;;19.30;96.70;;;;;;4913928;29;20060;-84
2023/11/05 10:22:59;;;;;;;13.43;2.75;;;19.20;96.70;;;;;;4926114;29;20094;-85
2023/11/05 10:25:27;;;;;;;8.35;1.40;;;19.20;96.70;;;;;;4897291;29;20056;-87
2023/11/05 10:27:59;;;;;;;9.30;2.10;;;19.20;96.70;;;;;;4903714;29;20047;-87
2023/11/05 10:30:30;;;;;;;9.93;1.45;;;19.30;96.70;;;;;;4914964;29;20047;-88
2023/11/05 10:33:00;;;;;;;9.65;1.63;;;19.30;96.70;;;;;;4896500;29;20692;-89
2023/11/05 10:35:32;;;;;;;10.75;2.35;;;19.30;96.70;;;;;;4898206;29;20055;-88
2023/11/05 10:38:02;;;;;;;8.55;1.40;;;19.40;96.70;;;;;;4898384;29;20605;-89
2023/11/05 10:40:31;;;;;;;10.85;1.95;;;19.50;96.70;;;;;;4913311;29;20047;-86
2023/11/05 10:42:59;;;;;;;8.13;1.58;;;19.60;96.70;;;;;;4898378;29;20075;-87
2023/11/05 10:45:37;;;;;;;7.53;1.30;;;19.90;96.70;;;;;;4914177;29;20081;-87
2023/11/05 10:48:09;;;;;;;16.95;2.60;;;19.90;96.70;;;;;;4931222;29;20058;-85
2023/11/05 10:50:39;;;;;;;15.20;2.95;;;19.70;96.70;;;;;;4897900;29;20080;-85
2023/11/05 10:53:08;;;;;;;9.57;2.10;;;19.70;96.70;;;;;;4913216;29;20044;-85
2023/11/05 10:55:39;;;;;;;16.80;2.10;;;19.70;96.70;;;;;;4909406;29;20503;-83
2023/11/05 10:58:07;;;;;;;11.13;2.78;;;19.60;96.70;;;;;;4910097;29;20047;-81
2023/11/05 11:00:56;;;;;;;8.02;1.40;;;19.60;96.70;;;;;;4904427;29;20423;-80
2023/11/05 11:03:28;;;;;;;10.07;1.90;;;19.50;96.70;;;;;;4908895;29;20036;-81
2023/11/05 11:06:02;;;;;;;10.93;2.05;;;19.50;96.70;;;;;;4908601;29;20048;-82
2023/11/05 11:08:34;;;;;;;5.97;1.38;;;19.50;96.70;;;;;;4892492;29;20142;-81
2023/11/05 11:11:12;;;;;;;8.32;1.52;;;19.50;96.70;;;;;;4909848;29;20059;-81
2023/11/05 11:13:52;;;;;;;8.27;1.83;;;19.50;96.70;;;;;;4917619;29;20672;-81
2023/11/05 11:16:41;;;;;;;8.18;1.65;;;19.50;96.70;;;;;;4903827;29;20051;-82
2023/11/05 11:19:12;;;;;;;7.50;1.35;;;19.50;96.70;;;;;;4892932;29;20578;-84
2023/11/05 11:21:50;;;;;;;9.70;1.90;;;19.50;96.70;;;;;;4907188;29;20049;-81
2023/11/05 11:24:33;;;;;;;7.30;1.25;;;19.60;96.70;;;;;;4909040;29;20360;-83
2023/11/05 11:27:04;;;;;;;7.00;1.38;;;19.50;96.70;;;;;;4908894;29;20048;-80
2023/11/05 11:29:34;;;;;;;8.73;1.40;;;19.50;96.70;;;;;;4909631;29;20052;-80
2023/11/05 11:32:03;;;;;;;11.35;1.80;;;19.50;96.70;;;;;;4898590;29;20050;-78
2023/11/05 11:34:32;;;;;;;9.52;1.75;;;19.50;96.70;;;;;;4913981;29;20059;-81
2023/11/05 11:37:04;;;;;;;11.23;2.53;;;19.50;96.70;;;;;;4907685;29;20063;-82
2023/11/05 11:39:32;;;;;;;9.68;2.40;;;19.50;96.70;;;;;;4910741;29;20040;-81
2023/11/05 11:42:00;;;;;;;9.05;2.38;;;19.50;96.70;;;;;;4914077;29;20048;-81
2023/11/05 11:44:29;;;;;;;7.38;1.70;;;19.70;96.70;;;;;;4906493;29;20047;-82
2023/11/05 11:46:57;;;;;;;9.18;2.13;;;19.80;96.70;;;;;;4910935;29;20162;-82
2023/11/05 11:49:29;;;;;;;7.13;1.90;;;19.80;96.70;;;;;;4907222;29;20067;-81
2023/11/05 11:51:58;;;;;;;13.20;1.75;;;19.80;96.70;;;;;;4911191;29;20107;-80
2023/11/05 11:54:28;;;;;;;11.93;2.08;;;19.70;96.70;;;;;;4896301;29;20414;-81
2023/11/05 11:56:57;;;;;;;8.13;1.88;;;19.70;96.70;;;;;;4931188;29;20526;-80
2023/11/05 11:59:25;;;;;;;10.55;2.20;;;19.80;96.70;;;;;;4926307;29;20170;-80
2023/11/05 12:01:56;;;;;;;6.85;1.50;;;20.20;96.70;;;;;;4893242;29;20043;-80
2023/11/05 12:04:26;;;;;;;7.22;1.83;;;20.30;96.70;;;;;;4912375;29;20126;-81
2023/11/05 12:06:54;;;;;;;10.15;2.22;;;20.20;96.70;;;;;;4930080;29;20553;-80
2023/11/05 12:09:23;;;;;;;5.57;1.40;;;20.30;96.70;;;;;;4929904;29;20047;-82
2023/11/05 12:11:53;;;;;;;7.57;1.88;;;20.50;96.70;;;;;;4897247;29;20781;-82
2023/11/05 12:14:22;;;;;;;9.57;1.73;;;20.60;96.70;;;;;;4913912;29;20048;-81
2023/11/05 12:16:52;;;;;;;10.02;1.80;;;20.60;96.70;;;;;;4930768;29;20052;-80
2023/11/05 12:19:21;;;;;;;11.70;1.83;;;20.80;96.70;;;;;;4930246;29;20047;-81
2023/11/05 12:21:50;;;;;;;8.30;1.58;;;20.50;96.70;;;;;;4914880;29;20822;-81
2023/11/05 12:24:18;;;;;;;9.00;1.80;;;20.20;96.70;;;;;;4923463;29;20631;-80
2023/11/05 12:26:49;;;;;;;6.20;1.50;;;20.10;96.70;;;;;;4913369;29;20535;-80
2023/11/05 12:29:20;;;;;;;6.65;1.60;;;20.10;96.70;;;;;;4914090;29;20047;-81
2023/11/05 12:31:48;;;;;;;6.28;1.60;;;20.10;96.70;;;;;;4913363;29;20051;-81
2023/11/05 12:34:17;;;;;;;6.90;1.98;;;20.20;96.70;;;;;;4913076;29;20050;-81
2023/11/05 12:36:45;;;;;;;15.00;2.50;;;20.20;96.70;;;;;;4912066;29;20052;-79
2023/11/05 12:39:13;;;;;;;9.30;1.80;;;20.10;96.70;;;;;;4912691;29;20087;-81
2023/11/05 12:41:41;;;;;;;9.43;1.77;;;20.10;96.70;;;;;;4930498;29;20039;-82
2023/11/05 12:44:09;;;;;;;7.70;1.58;;;20.00;96.70;;;;;;4912959;29;20096;-81
2023/11/05 12:46:39;;;;;;;8.23;1.40;;;20.10;96.70;;;;;;4912920;29;20044;-81
2023/11/05 12:49:07;;;;;;;8.75;1.40;;;20.30;96.70;;;;;;4933158;29;20047;-82
2023/11/05 12:51:35;;;;;;;11.02;1.77;;;20.40;96.70;;;;;;4917002;29;20191;-82